Time;durP1;ratioP1;P1;durP2;ratioP2;P2;SDS_P1;SDS_P2;PMS_P1;PMS_P2;Temp;Humidity;BMP_temperature;BMP_pressure;BME280_temperature;BME280_humidity;BME280_pressure;Samples;Min_cycle;Max_cycle;Signal;HPM_P1;HPM_P2
2022/01/04 00:00:07;;;;;;;;;7.75;6.25;;;;;13.58;100.00;100007.75;5027953;28;46167;-77
2022/01/04 00:02:33;;;;;;;;;10.25;8.50;;;;;13.56;100.00;99986.03;5039422;28;45403;-77
2022/01/04 00:04:58;;;;;;;;;6.25;6.25;;;;;13.54;100.00;99986.84;5039544;28;45358;-77
2022/01/04 00:07:24;;;;;;;;;6.25;6.00;;;;;13.52;100.00;99980.75;5005657;28;45627;-76
2022/01/04 00:09:52;;;;;;;;;5.25;4.00;;;;;13.52;100.00;99978.16;5039272;28;45332;-76
2022/01/04 00:15:07;;;;;;;;;5.75;4.00;;;;;13.46;100.00;99960.69;5038334;28;46051;-76
2022/01/04 00:17:32;;;;;;;;;4.75;4.75;;;;;13.46;100.00;99960.69;5039779;28;45487;-77
2022/01/04 00:20:01;;;;;;;;;3.50;3.50;;;;;13.42;100.00;99957.16;5038016;28;45513;-77
2022/01/04 00:22:27;;;;;;;;;4.00;4.00;;;;;13.38;100.00;99944.06;5021640;28;45701;-77
2022/01/04 00:24:53;;;;;;;;;4.25;4.25;;;;;13.37;100.00;99939.69;5039306;28;45324;-76
2022/01/04 00:27:18;;;;;;;;;3.00;3.00;;;;;13.39;100.00;99938.00;5039665;28;45572;-76
2022/01/04 00:29:44;;;;;;;;;3.75;3.25;;;;;13.37;100.00;99929.28;5038705;28;45350;-77
2022/01/04 00:32:10;;;;;;;;;3.25;3.25;;;;;13.36;100.00;99924.94;5038913;28;45338;-76
2022/01/04 00:34:35;;;;;;;;;6.00;4.00;;;;;13.34;100.00;99914.53;5038855;28;45257;-77
2022/01/04 00:37:01;;;;;;;;;5.75;4.75;;;;;13.32;100.00;99909.31;5039364;28;45565;-76
2022/01/04 00:39:27;;;;;;;;;5.00;4.25;;;;;13.30;100.00;99907.50;5039231;28;46415;-76
2022/01/04 00:41:52;;;;;;;;;6.00;6.00;;;;;13.26;100.00;99903.09;5038915;28;45298;-76
2022/01/04 00:44:18;;;;;;;;;5.00;5.00;;;;;13.23;100.00;99901.31;5039154;28;45327;-76
2022/01/04 00:46:44;;;;;;;;;7.50;6.00;;;;;13.21;100.00;99889.13;5039160;28;45573;-76
2022/01/04 00:49:10;;;;;;;;;6.00;6.00;;;;;13.20;100.00;99888.28;5037683;28;45978;-76
2022/01/04 00:51:41;;;;;;;;;4.00;4.00;;;;;13.21;100.00;99884.81;5038309;28;45826;-76
2022/01/04 00:54:07;;;;;;;;;9.75;7.00;;;;;13.24;100.00;99884.88;5038848;28;45353;-76
2022/01/04 00:56:33;;;;;;;;;9.25;5.25;;;;;13.25;100.00;99877.97;5038945;28;45275;-76
2022/01/04 00:58:59;;;;;;;;;7.25;7.25;;;;;13.24;100.00;99877.06;5038631;28;45487;-76
2022/01/04 01:01:25;;;;;;;;;8.00;7.00;;;;;13.25;100.00;99870.16;5038903;28;45362;-76
2022/01/04 01:03:51;;;;;;;;;6.00;5.75;;;;;13.23;100.00;99864.91;5038596;28;45385;-76
2022/01/04 01:06:17;;;;;;;;;3.00;3.00;;;;;13.22;100.00;99852.78;5038824;28;45434;-76
2022/01/04 01:08:43;;;;;;;;;3.00;3.00;;;;;13.20;100.00;99840.59;5038423;28;45433;-76
2022/01/04 01:11:09;;;;;;;;;2.00;2.00;;;;;13.12;100.00;99843.94;5038444;28;45389;-76
2022/01/04 01:13:35;;;;;;;;;1.00;1.00;;;;;13.11;100.00;99847.38;5038175;28;45505;-76
2022/01/04 01:16:01;;;;;;;;;1.50;1.00;;;;;13.10;100.00;99836.97;5038653;28;45525;-76
2022/01/04 01:18:27;;;;;;;;;2.00;2.00;;;;;13.06;100.00;99827.34;5038645;28;45473;-76
2022/01/04 01:20:53;;;;;;;;;2.00;2.00;;;;;13.01;100.00;99825.53;5038296;28;45320;-76
2022/01/04 01:23:20;;;;;;;;;2.00;2.00;;;;;12.96;100.00;99815.91;5038359;28;45307;-76
2022/01/04 01:25:47;;;;;;;;;3.50;2.25;;;;;12.96;100.00;99805.50;5038622;28;45315;-76
2022/01/04 01:28:14;;;;;;;;;0.00;0.00;;;;;12.98;100.00;99811.59;5020153;28;47110;-76
2022/01/04 01:30:41;;;;;;;;;1.00;1.00;;;;;12.98;100.00;99822.00;5038151;28;45738;-76
2022/01/04 01:33:08;;;;;;;;;2.00;1.25;;;;;12.98;100.00;99804.72;5038210;28;45296;-76
2022/01/04 01:35:34;;;;;;;;;1.00;1.00;;;;;12.98;100.00;99811.59;5024540;28;45379;-76
2022/01/04 01:38:01;;;;;;;;;1.00;1.00;;;;;12.92;100.00;99801.13;5017903;28;46013;-76
2022/01/04 01:40:27;;;;;;;;;1.00;1.00;;;;;12.87;100.00;99785.44;5031714;28;45813;-76
2022/01/04 01:42:53;;;;;;;;;0.00;0.00;;;;;12.83;100.00;99781.91;5023648;28;45366;-76
2022/01/04 01:45:21;;;;;;;;;2.00;0.50;;;;;12.77;100.00;99774.00;5018218;28;45473;-76
2022/01/04 01:47:47;;;;;;;;;0.00;0.00;;;;;12.74;100.00;99766.13;5018025;28;45530;-76
2022/01/04 01:50:14;;;;;;;;;0.00;0.00;;;;;12.75;100.00;99769.63;5018837;28;45186;-76
2022/01/04 01:52:40;;;;;;;;;0.00;0.00;;;;;12.75;100.00;99748.84;5023876;28;45382;-76
2022/01/04 01:55:07;;;;;;;;;0.50;0.50;;;;;12.74;100.00;99747.09;5023840;28;45267;-76
2022/01/04 01:57:33;;;;;;;;;0.00;0.00;;;;;12.73;100.00;99743.63;5017956;28;47611;-76
2022/01/04 01:59:59;;;;;;;;;0.25;0.25;;;;;12.72;100.00;99735.78;5019140;28;45227;-75
2022/01/04 02:02:24;;;;;;;;;0.00;0.00;;;;;12.69;100.00;99742.66;5032607;28;45309;-78
2022/01/04 02:04:50;;;;;;;;;0.00;0.00;;;;;12.66;100.00;99742.63;5038165;28;45365;-76
2022/01/04 02:07:19;;;;;;;;;1.00;1.00;;;;;12.67;100.00;99753.88;5037533;28;46281;-75
2022/01/04 02:09:52;;;;;;;;;0.50;0.50;;;;;12.65;100.00;99760.75;5037649;28;45370;-76
2022/01/04 02:12:20;;;;;;;;;1.00;1.00;;;;;12.65;100.00;99740.88;5023645;28;45542;-76
2022/01/04 02:14:49;;;;;;;;;0.00;0.00;;;;;12.64;100.00;99733.94;5033716;28;45545;-76
2022/01/04 02:17:15;;;;;;;;;0.75;0.00;;;;;12.65;100.00;99722.69;5037479;28;45998;-76
2022/01/04 02:19:41;;;;;;;;;0.00;0.00;;;;;12.63;100.00;99714.00;5035629;28;45243;-75
2022/01/04 02:22:07;;;;;;;;;0.50;0.00;;;;;12.67;100.00;99714.94;5024448;28;45551;-76
2022/01/04 02:24:33;;;;;;;;;1.00;0.00;;;;;12.67;100.00;99708.03;5036489;28;45609;-76
2022/01/04 02:26:59;;;;;;;;;0.75;0.00;;;;;12.70;100.00;99704.59;5037263;28;45919;-76
2022/01/04 02:29:25;;;;;;;;;0.00;0.00;;;;;12.68;100.00;99712.38;5036840;28;45779;-76
2022/01/04 02:31:51;;;;;;;;;0.00;0.00;;;;;12.67;100.00;99714.94;5029472;28;45874;-76
2022/01/04 02:34:17;;;;;;;;;0.00;0.00;;;;;12.66;100.00;99698.50;5037292;28;45362;-76
2022/01/04 02:36:42;;;;;;;;;0.25;0.25;;;;;12.68;100.00;99693.31;5036777;28;45410;-76
2022/01/04 02:39:08;;;;;;;;;0.00;0.00;;;;;12.67;100.00;99678.56;5035696;28;45403;-76
2022/01/04 02:41:34;;;;;;;;;1.00;1.00;;;;;12.68;100.00;99678.63;5036276;28;45387;-76
2022/01/04 02:43:59;;;;;;;;;1.00;0.00;;;;;12.67;100.00;99673.38;5037617;28;45223;-76
2022/01/04 02:46:25;;;;;;;;;0.00;0.00;;;;;12.66;100.00;99669.03;5030346;28;46260;-75
2022/01/04 02:48:50;;;;;;;;;1.00;0.00;;;;;12.66;100.00;99664.72;5016979;28;45316;-76
2022/01/04 02:51:18;;;;;;;;;0.00;0.00;;;;;12.67;100.00;99652.59;5025745;28;45209;-76
2022/01/04 02:53:44;;;;;;;;;0.00;0.00;;;;;12.66;100.00;99648.25;5036893;28;45335;-76
2022/01/04 02:56:11;;;;;;;;;0.00;0.00;;;;;12.64;100.00;99650.84;5032198;28;45454;-76
2022/01/04 02:58:38;;;;;;;;;0.00;0.00;;;;;12.61;100.00;99637.78;5027480;28;45702;-76
2022/01/04 03:01:04;;;;;;;;;0.00;0.00;;;;;12.61;100.00;99640.38;5017045;28;45442;-76
2022/01/04 03:03:31;;;;;;;;;0.00;0.00;;;;;12.60;100.00;99633.44;5021490;28;45240;-76
2022/01/04 03:05:56;;;;;;;;;0.00;0.00;;;;;12.59;100.00;99623.91;5016740;28;45496;-76
2022/01/04 03:08:22;;;;;;;;;1.00;1.00;;;;;12.59;100.00;99620.44;5016926;28;45258;-76
2022/01/04 03:10:49;;;;;;;;;1.50;0.00;;;;;12.57;100.00;99622.13;5017986;28;45225;-75
2022/01/04 03:13:16;;;;;;;;;0.00;0.00;;;;;12.55;100.00;99614.34;5035077;28;45802;-76
2022/01/04 03:15:43;;;;;;;;;0.00;0.00;;;;;12.52;100.00;99615.16;5034860;28;45598;-75
2022/01/04 03:18:08;;;;;;;;;0.00;0.00;;;;;12.49;100.00;99611.59;5024034;28;45648;-76
2022/01/04 03:20:34;;;;;;;;;0.25;0.00;;;;;12.45;100.00;99600.31;5025241;28;45273;-76
2022/01/04 03:23:00;;;;;;;;;0.00;0.00;;;;;12.43;100.00;99601.13;5035928;28;45355;-76
2022/01/04 03:25:26;;;;;;;;;0.00;0.00;;;;;12.41;100.00;99597.63;5036552;28;46007;-77
2022/01/04 03:27:52;;;;;;;;;0.75;0.00;;;;;12.39;100.00;99593.28;5018646;28;45298;-77
2022/01/04 03:30:18;;;;;;;;;0.00;0.00;;;;;12.36;100.00;99593.22;5017986;28;45254;-76
2022/01/04 03:32:44;;;;;;;;;0.00;0.00;;;;;12.29;100.00;99599.16;5016889;28;45400;-76
2022/01/04 03:35:09;;;;;;;;;0.00;0.00;;;;;12.29;100.00;99596.56;5018525;28;45459;-76
2022/01/04 03:37:35;;;;;;;;;0.00;0.00;;;;;12.30;100.00;99598.31;5016197;28;45587;-76
2022/01/04 03:40:03;;;;;;;;;0.00;0.00;;;;;12.31;100.00;99592.28;5016571;28;45568;-76
2022/01/04 03:42:28;;;;;;;;;0.00;0.00;;;;;12.32;100.00;99585.34;5032498;28;45305;-76
2022/01/04 03:44:54;;;;;;;;;0.00;0.00;;;;;12.34;100.00;99586.25;5020119;28;45568;-76
2022/01/04 03:47:19;;;;;;;;;0.00;0.00;;;;;12.34;100.00;99588.84;5015908;28;45490;-76
2022/01/04 03:49:45;;;;;;;;;0.00;0.00;;;;;12.34;100.00;99589.75;5020078;28;45408;-76
2022/01/04 03:52:11;;;;;;;;;0.75;0.00;;;;;12.32;100.00;99595.72;5031762;28;45406;-76
2022/01/04 03:54:36;;;;;;;;;0.00;0.00;;;;;12.28;100.00;99580.97;5005522;28;46689;-76
2022/01/04 03:57:02;;;;;;;;;0.00;0.00;;;;;12.26;100.00;99580.94;5016301;28;45341;-76
2022/01/04 03:59:27;;;;;;;;;0.00;0.00;;;;;12.27;100.00;99587.00;5020615;28;45257;-76
2022/01/04 04:01:53;;;;;;;;;0.00;0.00;;;;;12.28;100.00;99589.63;5026493;28;45394;-76
2022/01/04 04:04:19;;;;;;;;;0.00;0.00;;;;;12.26;100.00;99586.13;5034062;28;45374;-76
2022/01/04 04:06:46;;;;;;;;;0.00;0.00;;;;;12.24;100.00;99577.47;5035821;28;45544;-76
2022/01/04 04:09:12;;;;;;;;;0.00;0.00;;;;;12.21;100.00;99569.59;5035822;28;45509;-76
2022/01/04 04:11:38;;;;;;;;;0.00;0.00;;;;;12.15;100.00;99577.28;5033693;28;45536;-77
2022/01/04 04:14:03;;;;;;;;;0.00;0.00;;;;;12.13;100.00;99581.56;5016009;28;45462;-76
2022/01/04 04:16:29;;;;;;;;;0.00;0.00;;;;;12.16;100.00;99587.69;5016380;28;45240;-76
2022/01/04 04:18:55;;;;;;;;;0.00;0.00;;;;;12.19;100.00;99589.47;5015907;28;45415;-76
2022/01/04 04:21:20;;;;;;;;;1.00;0.00;;;;;12.18;100.00;99585.13;4998476;28;45384;-76
2022/01/04 04:23:46;;;;;;;;;0.00;0.00;;;;;12.16;100.00;99584.19;5027493;28;45560;-76
2022/01/04 04:26:12;;;;;;;;;0.00;0.00;;;;;12.15;100.00;99583.34;5027436;28;45310;-76
2022/01/04 04:28:37;;;;;;;;;0.00;0.00;;;;;12.16;100.00;99576.41;5019405;28;45376;-76
2022/01/04 04:31:05;;;;;;;;;0.00;0.00;;;;;12.16;100.00;99576.41;5036829;28;45718;-76
2022/01/04 04:33:31;;;;;;;;;0.00;0.00;;;;;12.12;100.00;99585.88;5039491;28;45427;-76
2022/01/04 04:35:56;;;;;;;;;0.00;0.00;;;;;12.10;100.00;99597.94;5025392;28;45503;-76
2022/01/04 04:38:22;;;;;;;;;0.00;0.00;;;;;12.06;100.00;99591.81;5019342;28;45437;-76
2022/01/04 04:40:47;;;;;;;;;0.00;0.00;;;;;12.04;100.00;99580.53;5019322;28;45363;-76
2022/01/04 04:43:13;;;;;;;;;0.00;0.00;;;;;12.08;100.00;99590.13;5020012;28;46198;-76
2022/01/04 04:45:38;;;;;;;;;0.00;0.00;;;;;12.10;100.00;99592.75;5019037;28;45284;-76
2022/01/04 04:48:04;;;;;;;;;0.00;0.00;;;;;12.14;100.00;99598.91;5026267;28;45415;-74
2022/01/04 04:50:31;;;;;;;;;0.00;0.00;;;;;12.17;100.00;99588.56;5038709;28;45483;-75
2022/01/04 04:52:57;;;;;;;;;0.00;0.00;;;;;12.20;100.00;99597.25;5037712;28;45393;-76
2022/01/04 04:55:23;;;;;;;;;0.00;0.00;;;;;12.23;100.00;99599.91;5024565;28;45217;-76
2022/01/04 04:57:48;;;;;;;;;0.00;0.00;;;;;12.26;100.00;99606.88;5023025;28;45836;-76
2022/01/04 05:00:15;;;;;;;;;0.00;0.00;;;;;12.25;100.00;99606.88;5038615;28;45815;-76
2022/01/04 05:02:41;;;;;;;;;0.00;0.00;;;;;12.22;100.00;99610.28;5021148;28;45880;-76
2022/01/04 05:05:07;;;;;;;;;0.00;0.00;;;;;12.18;100.00;99604.16;5029809;28;45277;-76
2022/01/04 05:07:34;;;;;;;;;0.00;0.00;;;;;12.13;100.00;99610.13;5039132;28;45447;-76
2022/01/04 05:10:00;;;;;;;;;0.00;0.00;;;;;12.08;100.00;99616.06;5021314;28;45519;-77
2022/01/04 05:12:25;;;;;;;;;0.00;0.00;;;;;12.08;100.00;99620.41;5036526;28;45889;-76
2022/01/04 05:14:51;;;;;;;;;0.00;0.00;;;;;12.08;100.00;99625.59;5027178;28;45186;-76
2022/01/04 05:17:16;;;;;;;;;0.00;0.00;;;;;12.04;100.00;99618.59;5018778;28;45375;-77
2022/01/04 05:19:42;;;;;;;;;0.00;0.00;;;;;12.02;100.00;99618.56;5000938;28;45622;-76
2022/01/04 05:22:08;;;;;;;;;0.00;0.00;;;;;12.06;100.00;99619.50;5019311;28;45283;-76
2022/01/04 05:24:33;;;;;;;;;0.00;0.00;;;;;12.07;100.00;99622.09;5025527;28;45225;-76
2022/01/04 05:26:59;;;;;;;;;0.00;0.00;;;;;12.07;100.00;99629.88;5007627;28;45804;-76
2022/01/04 05:29:25;;;;;;;;;0.75;0.75;;;;;12.00;100.00;99625.44;5018632;28;45323;-76
2022/01/04 05:31:51;;;;;;;;;0.00;0.00;;;;;11.96;100.00;99614.94;5019200;28;46068;-76
2022/01/04 05:34:16;;;;;;;;;0.75;0.00;;;;;11.95;100.00;99618.38;5024141;28;45255;-76
2022/01/04 05:36:42;;;;;;;;;0.00;0.00;;;;;11.98;100.00;99618.47;5018417;28;45491;-76
2022/01/04 05:39:08;;;;;;;;;0.00;0.00;;;;;11.95;100.00;99623.56;5031167;28;45481;-76
2022/01/04 05:41:34;;;;;;;;;0.00;0.00;;;;;11.90;100.00;99616.56;5037638;28;46057;-77
2022/01/04 05:44:00;;;;;;;;;0.25;0.00;;;;;11.88;100.00;99615.66;5037591;28;45370;-76
2022/01/04 05:46:26;;;;;;;;;0.25;0.00;;;;;11.88;100.00;99607.88;5036526;28;45509;-76
2022/01/04 05:48:52;;;;;;;;;0.00;0.00;;;;;11.86;100.00;99604.38;5034326;28;45235;-76
2022/01/04 05:51:18;;;;;;;;;1.00;1.00;;;;;11.86;100.00;99612.16;5035273;28;45228;-76
2022/01/04 05:53:44;;;;;;;;;0.00;0.00;;;;;11.84;100.00;99618.16;5019880;28;45281;-76
2022/01/04 05:56:09;;;;;;;;;0.00;0.00;;;;;11.81;100.00;99616.38;5019477;28;45359;-76
2022/01/04 05:58:35;;;;;;;;;0.50;0.50;;;;;11.76;100.00;99616.28;5024143;28;45551;-76
2022/01/04 06:01:01;;;;;;;;;0.00;0.00;;;;;11.75;100.00;99611.06;5026184;28;46191;-76
2022/01/04 06:03:28;;;;;;;;;0.00;0.00;;;;;11.73;100.00;99595.47;5026092;28;45444;-75
2022/01/04 06:05:54;;;;;;;;;1.25;0.00;;;;;11.71;100.00;99594.59;5027531;28;45497;-76
2022/01/04 06:08:21;;;;;;;;;0.00;0.00;;;;;11.70;100.00;99600.63;5027042;28;45516;-76
2022/01/04 06:10:51;;;;;;;;;0.00;0.00;;;;;11.73;100.00;99612.75;5028278;28;45611;-76
2022/01/04 06:16:03;;;;;;;;;0.00;0.00;;;;;11.68;100.00;99594.50;4999271;28;45384;-76
2022/01/04 06:18:29;;;;;;;;;0.25;0.25;;;;;11.67;100.00;99597.06;5025575;28;45437;-77
2022/01/04 06:20:56;;;;;;;;;0.00;0.00;;;;;11.68;100.00;99610.06;5036053;28;46286;-75
2022/01/04 06:23:22;;;;;;;;;0.00;0.00;;;;;11.71;100.00;99619.63;5031630;28;45322;-77
2022/01/04 06:25:48;;;;;;;;;0.00;0.00;;;;;11.72;100.00;99621.38;5019328;28;45283;-77
2022/01/04 06:28:14;;;;;;;;;0.00;0.00;;;;;11.73;100.00;99643.88;5012242;28;45668;-77
2022/01/04 06:30:39;;;;;;;;;1.25;1.25;;;;;11.71;100.00;99655.91;5037078;28;45748;-77
2022/01/04 06:33:06;;;;;;;;;1.75;1.00;;;;;11.69;100.00;99652.41;5036505;28;45455;-77
2022/01/04 06:35:33;;;;;;;;;0.00;0.00;;;;;11.70;100.00;99648.97;5030252;28;45470;-75
2022/01/04 06:37:59;;;;;;;;;0.00;0.00;;;;;11.67;100.00;99641.13;5023493;28;45236;-80
2022/01/04 06:40:25;;;;;;;;;0.25;0.25;;;;;11.66;100.00;99640.25;5016394;28;47108;-79
2022/01/04 06:42:50;;;;;;;;;1.00;1.00;;;;;11.59;100.00;99646.16;5006641;28;45484;-81
2022/01/04 06:45:16;;;;;;;;;1.00;1.00;;;;;11.57;100.00;99653.91;5033173;28;45521;-81
2022/01/04 06:47:42;;;;;;;;;1.00;1.00;;;;;11.59;100.00;99661.72;5032147;28;45470;-80
2022/01/04 06:50:08;;;;;;;;;1.50;1.50;;;;;11.56;100.00;99659.91;5035934;28;46608;-80
2022/01/04 06:52:34;;;;;;;;;3.00;3.00;;;;;11.53;100.00;99671.94;5036318;28;45913;-79
2022/01/04 06:55:00;;;;;;;;;1.00;1.00;;;;;11.46;100.00;99673.50;5035202;28;45509;-79
2022/01/04 06:57:26;;;;;;;;;1.25;1.25;;;;;11.43;100.00;99689.88;5037169;28;45607;-77
2022/01/04 06:59:51;;;;;;;;;2.00;2.00;;;;;11.42;100.00;99682.09;5018891;28;46699;-79
2022/01/04 07:02:17;;;;;;;;;2.00;2.00;;;;;11.37;100.00;99692.34;5034722;28;45532;-80
2022/01/04 07:04:43;;;;;;;;;3.00;3.00;;;;;11.31;100.00;99689.59;5035702;28;45476;-80
2022/01/04 07:07:09;;;;;;;;;3.00;1.50;;;;;11.30;100.00;99691.31;5037145;28;45380;-77
2022/01/04 07:09:34;;;;;;;;;2.75;2.75;;;;;11.34;100.00;99681.91;5036402;28;46574;-79
2022/01/04 07:12:00;;;;;;;;;4.25;3.00;;;;;11.35;100.00;99682.75;5036251;28;45209;-77
2022/01/04 07:14:26;;;;;;;;;4.00;4.00;;;;;11.34;100.00;99691.41;5031277;28;46715;-78
2022/01/04 07:16:52;;;;;;;;;2.00;2.00;;;;;11.32;100.00;99693.94;5018492;28;45497;-74
2022/01/04 07:19:17;;;;;;;;;3.00;3.00;;;;;11.29;100.00;99683.50;5017352;28;46897;-76
2022/01/04 07:21:43;;;;;;;;;4.00;4.00;;;;;11.28;100.00;99679.19;5035987;28;45447;-76
2022/01/04 07:24:09;;;;;;;;;3.50;3.50;;;;;11.28;100.00;99681.78;5035362;28;45221;-75
2022/01/04 07:26:34;;;;;;;;;4.00;4.00;;;;;11.30;100.00;99677.47;5035203;28;45707;-77
2022/01/04 07:29:00;;;;;;;;;2.00;2.00;;;;;11.32;100.00;99682.72;5034882;28;46023;-78
2022/01/04 07:31:26;;;;;;;;;3.25;3.25;;;;;11.34;100.00;99684.50;5036571;28;45453;-83
2022/01/04 07:33:51;;;;;;;;;3.25;2.00;;;;;11.35;100.00;99693.13;5037556;28;45367;-80
2022/01/04 07:36:18;;;;;;;;;3.00;2.00;;;;;11.35;100.00;99694.00;5017844;28;45631;-78
2022/01/04 07:38:44;;;;;;;;;4.75;3.00;;;;;11.35;100.00;99703.50;5015332;28;45576;-78
2022/01/04 07:41:10;;;;;;;;;3.00;3.00;;;;;11.33;100.00;99703.47;5036257;28;45416;-78
2022/01/04 07:43:35;;;;;;;;;3.00;3.00;;;;;11.35;100.00;99708.66;5016602;28;45559;-76
2022/01/04 07:46:01;;;;;;;;;4.00;3.00;;;;;11.36;100.00;99713.91;5034405;28;45430;-75
2022/01/04 07:48:27;;;;;;;;;4.25;3.00;;;;;11.35;100.00;99716.44;5034250;28;46051;-78
2022/01/04 07:50:55;;;;;;;;;1.25;1.25;;;;;11.31;100.00;99715.50;5034248;28;45410;-78
2022/01/04 07:53:22;;;;;;;;;2.25;1.25;;;;;11.33;100.00;99728.53;5034087;28;45486;-78
2022/01/04 07:55:48;;;;;;;;;4.00;3.75;;;;;11.34;100.00;99725.94;5036215;28;45395;-78
2022/01/04 07:58:14;;;;;;;;;5.75;4.00;;;;;11.36;100.00;99723.38;5035566;28;46166;-77
2022/01/04 08:00:39;;;;;;;;;3.50;2.50;;;;;11.40;100.00;99725.22;5050258;28;45268;-77
2022/01/04 08:03:07;;;;;;;;;3.00;2.00;;;;;11.44;100.00;99748.66;5039360;28;45402;-77
2022/01/04 08:05:33;;;;;;;;;2.50;2.50;;;;;11.45;100.00;99755.59;5038656;28;45537;-76
2022/01/04 08:07:59;;;;;;;;;1.75;1.75;;;;;11.41;100.00;99769.31;5031957;28;45903;-76
2022/01/04 08:10:25;;;;;;;;;2.00;2.00;;;;;11.40;100.00;99774.47;5038179;28;45505;-77
2022/01/04 08:12:50;;;;;;;;;2.00;2.00;;;;;11.38;100.00;99776.13;5036178;28;45444;-76
2022/01/04 08:15:16;;;;;;;;;3.00;3.00;;;;;11.35;100.00;99789.91;5037205;28;45465;-76
2022/01/04 08:17:42;;;;;;;;;6.00;2.50;;;;;11.35;100.00;99792.50;5037721;28;46077;-77
2022/01/04 08:20:09;;;;;;;;;3.00;3.00;;;;;11.37;100.00;99802.88;5038077;28;45493;-77
2022/01/04 08:22:35;;;;;;;;;4.00;3.50;;;;;11.34;100.00;99793.31;5036182;28;45367;-77
2022/01/04 08:25:07;;;;;;;;;5.00;5.00;;;;;11.32;100.00;99788.94;5038647;28;45308;-77
2022/01/04 08:27:34;;;;;;;;;6.25;5.50;;;;;11.32;100.00;99776.00;5038274;28;45348;-77
2022/01/04 08:29:59;;;;;;;;;3.00;3.00;;;;;11.33;100.00;99770.84;5038272;28;46767;-77
2022/01/04 08:32:25;;;;;;;;;6.50;5.00;;;;;11.36;100.00;99777.81;5020348;28;45456;-75
2022/01/04 08:34:51;;;;;;;;;6.00;6.00;;;;;11.30;100.00;99782.00;5038285;28;45518;-77
2022/01/04 08:37:18;;;;;;;;;7.50;7.25;;;;;11.26;100.00;99798.31;5038265;28;45440;-77
2022/01/04 08:39:44;;;;;;;;;6.75;6.75;;;;;11.23;100.00;99792.19;5038090;28;45441;-77
2022/01/04 08:42:10;;;;;;;;;10.25;9.75;;;;;11.24;100.00;99797.38;5038023;28;45467;-76
2022/01/04 08:44:39;;;;;;;;;9.00;9.00;;;;;11.27;100.00;99809.56;5038763;28;45498;-78
2022/01/04 08:47:06;;;;;;;;;8.00;6.25;;;;;11.30;100.00;99801.84;5038216;28;45397;-78
2022/01/04 08:49:32;;;;;;;;;9.75;7.50;;;;;11.30;100.00;99804.44;5037946;28;45277;-77
2022/01/04 08:51:57;;;;;;;;;9.50;9.50;;;;;11.30;100.00;99810.50;5037270;28;45679;-78
2022/01/04 08:54:23;;;;;;;;;8.50;7.25;;;;;11.34;100.00;99813.19;5040564;28;45438;-77
2022/01/04 08:56:49;;;;;;;;;7.50;7.00;;;;;11.36;100.00;99820.16;5034171;28;45874;-76
2022/01/04 08:59:15;;;;;;;;;5.75;5.00;;;;;11.35;100.00;99809.75;5038219;28;45916;-76
2022/01/04 09:01:41;;;;;;;;;4.50;4.00;;;;;11.36;100.00;99801.13;5042167;28;45517;-76
2022/01/04 09:04:06;;;;;;;;;7.00;4.00;;;;;11.36;100.00;99812.38;5038381;28;45582;-77
2022/01/04 09:06:33;;;;;;;;;1.00;0.00;;;;;11.36;100.00;99817.56;5038221;28;46160;-77
2022/01/04 09:09:00;;;;;;;;;4.00;4.00;;;;;11.33;100.00;99822.66;5038356;28;45323;-77
2022/01/04 09:11:26;;;;;;;;;5.50;4.50;;;;;11.30;100.00;99820.88;5033476;28;45271;-77
2022/01/04 09:14:11;;;;;;;;;2.00;2.00;;;;;11.31;100.00;99839.88;5038053;28;45553;-77
2022/01/04 09:19:26;;;;;;;;;1.25;1.00;;;;;11.24;100.00;99830.22;5036048;28;45379;-76
2022/01/04 09:21:52;;;;;;;;;3.00;2.25;;;;;11.21;100.00;99824.94;5028452;28;45470;-78
2022/01/04 09:24:18;;;;;;;;;2.50;2.50;;;;;11.22;100.00;99814.63;5038092;28;45375;-77
2022/01/04 09:26:44;;;;;;;;;2.00;2.00;;;;;11.22;100.00;99812.03;5038065;28;45946;-77
2022/01/04 09:29:11;;;;;;;;;2.25;2.25;;;;;11.21;100.00;99805.09;5038117;28;45572;-77
2022/01/04 09:31:36;;;;;;;;;2.25;2.00;;;;;11.22;100.00;99791.31;5038257;28;45340;-78
2022/01/04 09:34:03;;;;;;;;;2.75;2.75;;;;;11.22;100.00;99790.41;5034611;28;45626;-77
2022/01/04 09:36:33;;;;;;;;;2.50;1.00;;;;;11.22;100.00;99806.84;5034459;28;45539;-76
2022/01/04 09:39:00;;;;;;;;;2.25;2.00;;;;;11.22;100.00;99809.44;5034471;28;46033;-77
2022/01/04 09:41:26;;;;;;;;;1.50;1.50;;;;;11.25;100.00;99813.81;5037267;28;45252;-77
2022/01/04 09:43:52;;;;;;;;;0.50;0.50;;;;;11.24;100.00;99819.84;5036989;28;45316;-77
2022/01/04 09:46:19;;;;;;;;;2.00;0.25;;;;;11.19;100.00;99818.81;5037783;28;45378;-78
2022/01/04 09:48:44;;;;;;;;;2.50;1.00;;;;;11.16;100.00;99824.81;5037901;28;45879;-77
2022/01/04 09:51:12;;;;;;;;;2.00;2.00;;;;;11.14;100.00;99824.78;5038028;28;45457;-77
2022/01/04 09:53:38;;;;;;;;;0.75;0.75;;;;;11.13;100.00;99842.88;5038369;28;45568;-78
2022/01/04 09:56:04;;;;;;;;;0.50;0.50;;;;;11.08;100.00;99855.69;5037487;28;46086;-77
2022/01/04 09:58:30;;;;;;;;;2.00;2.00;;;;;11.02;100.00;99844.28;5036880;28;45322;-77
2022/01/04 10:00:56;;;;;;;;;2.00;1.00;;;;;10.99;100.00;99845.97;5036529;28;45330;-76
2022/01/04 10:03:26;;;;;;;;;4.00;2.00;;;;;11.02;100.00;99854.63;5037223;28;45588;-77
2022/01/04 10:06:04;;;;;;;;;3.00;3.00;;;;;11.03;100.00;99859.00;5036787;28;45809;-76
2022/01/04 10:08:30;;;;;;;;;2.25;2.25;;;;;11.04;100.00;99847.78;5033342;28;45783;-76
2022/01/04 10:11:08;;;;;;;;;2.00;2.00;;;;;11.04;100.00;99859.06;5037722;28;45386;-76
2022/01/04 10:13:34;;;;;;;;;0.75;0.25;;;;;11.05;100.00;99858.22;5037587;28;45458;-76
2022/01/04 10:16:00;;;;;;;;;1.00;1.00;;;;;11.04;100.00;99866.81;5019300;28;47822;-76
2022/01/04 10:18:28;;;;;;;;;2.00;1.50;;;;;11.06;100.00;99870.34;5037298;28;45925;-79
2022/01/04 10:21:02;;;;;;;;;1.00;1.00;;;;;11.08;100.00;99870.38;5037227;28;45388;-78
2022/01/04 10:23:27;;;;;;;;;2.75;2.75;;;;;11.07;100.00;99871.19;5037354;28;45506;-79
2022/01/04 10:26:05;;;;;;;;;4.00;3.00;;;;;11.09;100.00;99867.81;5037299;28;46068;-79
2022/01/04 10:28:40;;;;;;;;;4.25;3.00;;;;;11.13;100.00;99853.22;5036420;28;45986;-79
2022/01/04 10:31:24;;;;;;;;;4.75;3.00;;;;;11.18;100.00;99846.47;5037019;28;45165;-79
2022/01/04 10:33:56;;;;;;;;;4.00;4.00;;;;;11.21;100.00;99846.56;5037563;28;45350;-79
2022/01/04 10:36:25;;;;;;;;;2.00;2.00;;;;;11.25;100.00;99845.78;5037123;28;45310;-80
2022/01/04 10:38:51;;;;;;;;;4.00;4.00;;;;;11.26;100.00;99844.94;5036890;28;45741;-76
2022/01/04 10:41:17;;;;;;;;;3.00;2.25;;;;;11.26;100.00;99851.84;5037043;28;45284;-79
2022/01/04 10:43:58;;;;;;;;;3.75;3.00;;;;;11.25;100.00;99852.69;5037346;28;45339;-78
2022/01/04 10:46:33;;;;;;;;;2.00;2.00;;;;;11.26;100.00;99850.13;5018320;28;47411;-77
2022/01/04 10:48:59;;;;;;;;;10.00;7.00;;;;;11.30;100.00;99832.94;5002545;28;45769;-79
2022/01/04 10:51:26;;;;;;;;;2.00;2.00;;;;;11.32;100.00;99843.38;5036866;28;45323;-81
2022/01/04 10:54:06;;;;;;;;;3.25;2.00;;;;;11.33;100.00;99847.72;5037164;28;45285;-78
2022/01/04 10:56:38;;;;;;;;;3.75;2.75;;;;;11.36;100.00;99850.38;5035705;28;45568;-77
2022/01/04 10:59:09;;;;;;;;;2.00;2.00;;;;;11.36;100.00;99847.78;5035115;28;46590;-78
2022/01/04 11:01:45;;;;;;;;;1.25;1.25;;;;;11.38;100.00;99846.09;5035032;28;45521;-76
2022/01/04 11:04:14;;;;;;;;;1.00;1.00;;;;;11.40;100.00;99849.63;5033798;28;45489;-76
2022/01/04 11:06:39;;;;;;;;;1.00;0.00;;;;;11.37;100.00;99844.34;5031378;28;45538;-77
2022/01/04 11:09:07;;;;;;;;;1.50;1.50;;;;;11.33;100.00;99843.41;5033894;28;45473;-77
2022/01/04 11:11:33;;;;;;;;;2.50;2.00;;;;;11.32;100.00;99843.38;5034835;28;45493;-77
2022/01/04 11:14:03;;;;;;;;;2.00;1.00;;;;;11.29;100.00;99837.25;5033071;28;45699;-78
2022/01/04 11:16:30;;;;;;;;;2.25;1.75;;;;;11.24;100.00;99828.47;5034524;28;47341;-78
2022/01/04 11:18:59;;;;;;;;;1.00;1.00;;;;;11.23;100.00;99839.69;5033730;28;45823;-78
2022/01/04 11:21:34;;;;;;;;;1.50;1.50;;;;;11.25;100.00;99838.00;5035020;28;45517;-78
2022/01/04 11:24:02;;;;;;;;;2.00;2.00;;;;;11.28;100.00;99845.88;5034650;28;45493;-78
2022/01/04 11:26:30;;;;;;;;;1.25;1.25;;;;;11.25;100.00;99860.47;5028827;28;45878;-82
2022/01/04 11:28:57;;;;;;;;;1.00;1.00;;;;;11.24;100.00;99862.16;5031849;28;45585;-78